sensor_id;sensor_type;location;lat;lon;timestamp;pressure;altitude;pressure_sealevel;temperature;humidity
53023;BME280;38913;44.338;11.206;2023-05-25T00:01:34;100370.25;;;18.08;100.00
53023;BME280;38913;44.338;11.206;2023-05-25T00:04:00;100341.72;;;18.36;100.00
53023;BME280;38913;44.338;11.206;2023-05-25T00:06:32;100376.63;;;18.29;100.00
53023;BME280;38913;44.338;11.206;2023-05-25T00:09:01;100352.69;;;18.40;100.00
53023;BME280;38913;44.338;11.206;2023-05-25T00:11:27;100363.41;;;18.45;100.00
53023;BME280;38913;44.338;11.206;2023-05-25T00:13:52;100385.25;;;18.42;100.00
53023;BME280;38913;44.338;11.206;2023-05-25T00:16:17;100340.75;;;18.15;100.00
53023;BME280;38913;44.338;11.206;2023-05-25T00:18:43;100319.19;;;18.49;100.00
53023;BME280;38913;44.338;11.206;2023-05-25T00:21:09;100367.69;;;18.46;100.00
53023;BME280;38913;44.338;11.206;2023-05-25T00:23:35;100371.47;;;18.23;100.00
53023;BME280;38913;44.338;11.206;2023-05-25T00:26:02;100367.91;;;18.39;100.00
53023;BME280;38913;44.338;11.206;2023-05-25T00:28:27;100357.00;;;18.41;100.00
53023;BME280;38913;44.338;11.206;2023-05-25T00:30:53;100348.59;;;18.27;100.00
53023;BME280;38913;44.338;11.206;2023-05-25T00:33:18;100322.63;;;18.17;100.00
53023;BME280;38913;44.338;11.206;2023-05-25T00:35:44;100309.34;;;18.22;100.00
53023;BME280;38913;44.338;11.206;2023-05-25T00:38:15;100283.66;;;18.11;100.00
53023;BME280;38913;44.338;11.206;2023-05-25T00:40:42;100190.25;;;18.00;100.00
53023;BME280;38913;44.338;11.206;2023-05-25T00:43:08;100186.94;;;18.21;100.00
53023;BME280;38913;44.338;11.206;2023-05-25T00:45:34;100207.03;;;18.01;100.00
53023;BME280;38913;44.338;11.206;2023-05-25T00:48:00;100174.75;;;17.97;100.00
53023;BME280;38913;44.338;11.206;2023-05-25T00:50:36;100162.16;;;17.87;100.00
53023;BME280;38913;44.338;11.206;2023-05-25T00:53:04;100134.72;;;17.92;100.00
53023;BME280;38913;44.338;11.206;2023-05-25T00:55:32;100101.16;;;17.91;100.00
53023;BME280;38913;44.338;11.206;2023-05-25T00:58:02;100086.81;;;17.97;100.00
53023;BME280;38913;44.338;11.206;2023-05-25T01:00:29;100084.50;;;18.06;100.00
53023;BME280;38913;44.338;11.206;2023-05-25T01:02:57;100090.31;;;18.03;100.00
53023;BME280;38913;44.338;11.206;2023-05-25T01:05:24;100063.63;;;17.98;100.00
53023;BME280;38913;44.338;11.206;2023-05-25T01:07:54;100058.63;;;17.63;100.00
53023;BME280;38913;44.338;11.206;2023-05-25T01:10:21;100048.28;;;17.72;100.00
53023;BME280;38913;44.338;11.206;2023-05-25T01:12:50;100044.28;;;17.75;100.00
53023;BME280;38913;44.338;11.206;2023-05-25T01:15:17;100039.78;;;17.75;100.00
53023;BME280;38913;44.338;11.206;2023-05-25T01:17:44;100059.38;;;17.59;100.00
53023;BME280;38913;44.338;11.206;2023-05-25T01:20:10;100072.19;;;17.62;100.00
53023;BME280;38913;44.338;11.206;2023-05-25T01:22:56;100090.47;;;17.53;100.00
53023;BME280;38913;44.338;11.206;2023-05-25T01:25:50;100087.53;;;17.49;100.00
53023;BME280;38913;44.338;11.206;2023-05-25T01:28:24;100057.75;;;17.53;100.00
53023;BME280;38913;44.338;11.206;2023-05-25T01:30:55;100064.69;;;17.26;100.00
53023;BME280;38913;44.338;11.206;2023-05-25T01:33:21;100040.59;;;17.10;100.00
53023;BME280;38913;44.338;11.206;2023-05-25T01:35:50;100018.50;;;17.10;100.00
53023;BME280;38913;44.338;11.206;2023-05-25T01:38:16;100002.69;;;17.26;100.00
53023;BME280;38913;44.338;11.206;2023-05-25T01:40:42;100009.41;;;17.38;100.00
53023;BME280;38913;44.338;11.206;2023-05-25T01:43:08;100017.16;;;17.40;100.00
53023;BME280;38913;44.338;11.206;2023-05-25T01:45:34;100030.53;;;17.45;100.00
53023;BME280;38913;44.338;11.206;2023-05-25T01:48:24;100034.34;;;17.27;100.00
53023;BME280;38913;44.338;11.206;2023-05-25T01:50:56;100039.78;;;17.37;100.00
53023;BME280;38913;44.338;11.206;2023-05-25T01:53:29;100036.28;;;17.32;100.00
53023;BME280;38913;44.338;11.206;2023-05-25T01:56:00;100046.63;;;17.28;100.00
53023;BME280;38913;44.338;11.206;2023-05-25T01:58:27;100045.72;;;17.17;100.00
53023;BME280;38913;44.338;11.206;2023-05-25T02:00:56;100040.91;;;17.14;100.00
53023;BME280;38913;44.338;11.206;2023-05-25T02:03:23;100035.34;;;17.16;100.00
53023;BME280;38913;44.338;11.206;2023-05-25T02:05:48;100029.84;;;17.28;100.00
53023;BME280;38913;44.338;11.206;2023-05-25T02:08:14;100032.97;;;17.19;100.00
53023;BME280;38913;44.338;11.206;2023-05-25T02:10:39;100045.69;;;16.90;100.00
53023;BME280;38913;44.338;11.206;2023-05-25T02:13:04;100045.53;;;16.74;100.00
53023;BME280;38913;44.338;11.206;2023-05-25T02:15:31;100043.50;;;16.59;100.00
53023;BME280;38913;44.338;11.206;2023-05-25T02:17:57;100038.63;;;16.73;100.00
53023;BME280;38913;44.338;11.206;2023-05-25T02:20:24;100027.00;;;16.84;100.00
53023;BME280;38913;44.338;11.206;2023-05-25T02:22:50;100041.06;;;16.80;100.00
53023;BME280;38913;44.338;11.206;2023-05-25T02:25:15;100048.81;;;16.81;100.00
53023;BME280;38913;44.338;11.206;2023-05-25T02:27:42;100044.72;;;16.74;100.00
53023;BME280;38913;44.338;11.206;2023-05-25T02:30:07;100042.38;;;16.77;100.00
53023;BME280;38913;44.338;11.206;2023-05-25T02:32:33;100059.25;;;16.88;100.00
53023;BME280;38913;44.338;11.206;2023-05-25T02:34:59;100054.28;;;16.97;100.00
53023;BME280;38913;44.338;11.206;2023-05-25T02:37:25;100069.13;;;16.93;100.00
53023;BME280;38913;44.338;11.206;2023-05-25T02:39:50;100065.63;;;16.87;100.00
53023;BME280;38913;44.338;11.206;2023-05-25T02:42:16;100069.34;;;16.86;100.00
53023;BME280;38913;44.338;11.206;2023-05-25T02:44:41;100068.72;;;16.79;100.00
53023;BME280;38913;44.338;11.206;2023-05-25T02:47:13;100048.44;;;16.50;100.00
53023;BME280;38913;44.338;11.206;2023-05-25T02:49:38;100045.25;;;16.70;100.00
53023;BME280;38913;44.338;11.206;2023-05-25T02:52:04;100054.88;;;16.77;100.00
53023;BME280;38913;44.338;11.206;2023-05-25T02:54:30;100069.63;;;16.90;100.00
53023;BME280;38913;44.338;11.206;2023-05-25T02:56:55;100073.84;;;16.86;100.00
53023;BME280;38913;44.338;11.206;2023-05-25T02:59:20;100083.69;;;16.63;100.00
53023;BME280;38913;44.338;11.206;2023-05-25T03:01:46;100080.44;;;16.55;100.00
53023;BME280;38913;44.338;11.206;2023-05-25T03:04:11;100071.59;;;16.50;100.00
53023;BME280;38913;44.338;11.206;2023-05-25T03:06:36;100069.03;;;16.60;100.00
53023;BME280;38913;44.338;11.206;2023-05-25T03:09:02;100074.50;;;16.70;100.00
53023;BME280;38913;44.338;11.206;2023-05-25T03:11:29;100078.06;;;16.59;100.00
53023;BME280;38913;44.338;11.206;2023-05-25T03:13:54;100068.00;;;16.61;100.00
53023;BME280;38913;44.338;11.206;2023-05-25T03:16:20;100066.56;;;16.76;100.00
53023;BME280;38913;44.338;11.206;2023-05-25T03:18:47;100067.72;;;16.18;100.00
53023;BME280;38913;44.338;11.206;2023-05-25T03:21:12;100054.28;;;16.47;100.00
53023;BME280;38913;44.338;11.206;2023-05-25T03:23:38;100061.13;;;16.65;100.00
53023;BME280;38913;44.338;11.206;2023-05-25T03:26:03;100060.00;;;16.39;100.00
53023;BME280;38913;44.338;11.206;2023-05-25T03:28:28;100057.22;;;16.28;100.00
53023;BME280;38913;44.338;11.206;2023-05-25T03:30:54;100066.38;;;16.38;100.00
53023;BME280;38913;44.338;11.206;2023-05-25T03:33:20;100072.56;;;16.66;100.00
53023;BME280;38913;44.338;11.206;2023-05-25T03:35:46;100076.41;;;16.53;100.00
53023;BME280;38913;44.338;11.206;2023-05-25T03:38:11;100082.84;;;16.57;100.00
53023;BME280;38913;44.338;11.206;2023-05-25T03:40:36;100091.09;;;16.83;100.00
53023;BME280;38913;44.338;11.206;2023-05-25T03:43:02;100100.13;;;16.82;100.00
53023;BME280;38913;44.338;11.206;2023-05-25T03:45:27;100112.38;;;16.83;100.00
53023;BME280;38913;44.338;11.206;2023-05-25T03:47:52;100099.75;;;16.95;100.00
53023;BME280;38913;44.338;11.206;2023-05-25T03:50:18;100115.88;;;16.83;100.00
53023;BME280;38913;44.338;11.206;2023-05-25T03:52:43;100102.00;;;16.81;100.00
53023;BME280;38913;44.338;11.206;2023-05-25T03:55:09;100116.97;;;16.88;100.00
53023;BME280;38913;44.338;11.206;2023-05-25T03:57:34;100119.13;;;16.91;100.00
53023;BME280;38913;44.338;11.206;2023-05-25T04:00:02;100135.84;;;16.86;100.00
53023;BME280;38913;44.338;11.206;2023-05-25T04:02:29;100131.44;;;16.75;100.00
53023;BME280;38913;44.338;11.206;2023-05-25T04:04:54;100128.78;;;16.75;100.00
53023;BME280;38913;44.338;11.206;2023-05-25T04:07:21;100133.97;;;16.87;100.00
53023;BME280;38913;44.338;11.206;2023-05-25T04:09:46;100137.00;;;16.95;100.00
53023;BME280;38913;44.338;11.206;2023-05-25T04:12:11;100152.59;;;16.87;100.00
53023;BME280;38913;44.338;11.206;2023-05-25T04:14:37;100155.69;;;17.01;100.00
53023;BME280;38913;44.338;11.206;2023-05-25T04:17:02;100145.63;;;17.03;100.00
53023;BME280;38913;44.338;11.206;2023-05-25T04:19:28;100137.41;;;17.04;100.00
53023;BME280;38913;44.338;11.206;2023-05-25T04:21:53;100139.94;;;17.16;100.00
53023;BME280;38913;44.338;11.206;2023-05-25T04:24:20;100151.19;;;17.23;100.00
53023;BME280;38913;44.338;11.206;2023-05-25T04:26:45;100149.28;;;17.19;100.00
53023;BME280;38913;44.338;11.206;2023-05-25T04:29:11;100149.97;;;17.09;100.00
53023;BME280;38913;44.338;11.206;2023-05-25T04:31:37;100143.59;;;16.88;100.00
53023;BME280;38913;44.338;11.206;2023-05-25T04:34:03;100142.56;;;17.11;100.00
53023;BME280;38913;44.338;11.206;2023-05-25T04:36:28;100161.84;;;17.51;100.00
53023;BME280;38913;44.338;11.206;2023-05-25T04:38:56;100185.69;;;17.41;100.00
53023;BME280;38913;44.338;11.206;2023-05-25T04:41:22;100211.00;;;17.38;100.00
53023;BME280;38913;44.338;11.206;2023-05-25T04:43:49;100214.50;;;17.71;100.00
53023;BME280;38913;44.338;11.206;2023-05-25T04:46:18;100231.91;;;17.79;100.00
53023;BME280;38913;44.338;11.206;2023-05-25T04:48:43;100263.13;;;17.34;100.00
53023;BME280;38913;44.338;11.206;2023-05-25T04:51:09;100261.38;;;17.45;100.00
53023;BME280;38913;44.338;11.206;2023-05-25T04:53:35;100261.59;;;17.65;100.00
53023;BME280;38913;44.338;11.206;2023-05-25T04:56:01;100283.19;;;17.42;100.00
53023;BME280;38913;44.338;11.206;2023-05-25T04:58:26;100290.28;;;17.58;100.00
53023;BME280;38913;44.338;11.206;2023-05-25T05:00:56;100321.81;;;17.44;100.00
53023;BME280;38913;44.338;11.206;2023-05-25T05:03:22;100321.19;;;17.37;100.00
53023;BME280;38913;44.338;11.206;2023-05-25T05:05:48;100330.25;;;17.36;100.00
53023;BME280;38913;44.338;11.206;2023-05-25T05:08:13;100335.44;;;17.48;100.00
53023;BME280;38913;44.338;11.206;2023-05-25T05:10:39;100322.81;;;17.60;100.00
53023;BME280;38913;44.338;11.206;2023-05-25T05:13:04;100340.53;;;17.72;100.00
53023;BME280;38913;44.338;11.206;2023-05-25T05:15:30;100322.94;;;17.71;100.00
53023;BME280;38913;44.338;11.206;2023-05-25T05:17:55;100309.31;;;17.67;100.00
53023;BME280;38913;44.338;11.206;2023-05-25T05:20:21;100313.94;;;17.77;100.00
53023;BME280;38913;44.338;11.206;2023-05-25T05:22:46;100316.41;;;17.84;100.00
53023;BME280;38913;44.338;11.206;2023-05-25T05:25:11;100328.06;;;17.77;100.00
53023;BME280;38913;44.338;11.206;2023-05-25T05:27:37;100346.53;;;17.84;100.00
53023;BME280;38913;44.338;11.206;2023-05-25T05:30:02;100343.66;;;17.91;100.00
53023;BME280;38913;44.338;11.206;2023-05-25T05:32:28;100378.78;;;18.05;100.00
53023;BME280;38913;44.338;11.206;2023-05-25T05:34:53;100370.78;;;18.05;100.00
53023;BME280;38913;44.338;11.206;2023-05-25T05:37:18;100398.09;;;18.17;100.00
53023;BME280;38913;44.338;11.206;2023-05-25T05:39:44;100380.56;;;17.99;100.00
53023;BME280;38913;44.338;11.206;2023-05-25T05:42:09;100349.28;;;17.95;100.00
53023;BME280;38913;44.338;11.206;2023-05-25T05:44:35;100333.84;;;18.19;100.00
53023;BME280;38913;44.338;11.206;2023-05-25T05:47:00;100320.50;;;18.19;100.00
53023;BME280;38913;44.338;11.206;2023-05-25T05:49:26;100317.66;;;18.26;100.00
53023;BME280;38913;44.338;11.206;2023-05-25T05:51:52;100342.66;;;18.47;100.00
53023;BME280;38913;44.338;11.206;2023-05-25T05:54:17;100398.25;;;18.61;100.00
53023;BME280;38913;44.338;11.206;2023-05-25T05:56:42;100410.06;;;18.42;100.00
53023;BME280;38913;44.338;11.206;2023-05-25T05:59:10;100420.06;;;18.57;100.00
53023;BME280;38913;44.338;11.206;2023-05-25T06:01:35;100446.66;;;18.47;100.00
53023;BME280;38913;44.338;11.206;2023-05-25T06:04:01;100490.38;;;18.46;100.00
53023;BME280;38913;44.338;11.206;2023-05-25T06:06:26;100544.66;;;18.57;100.00
53023;BME280;38913;44.338;11.206;2023-05-25T06:08:51;100560.34;;;18.53;100.00
53023;BME280;38913;44.338;11.206;2023-05-25T06:11:17;100579.84;;;18.31;100.00
53023;BME280;38913;44.338;11.206;2023-05-25T06:13:42;100585.09;;;18.26;100.00
53023;BME280;38913;44.338;11.206;2023-05-25T06:16:07;100569.91;;;18.27;100.00
53023;BME280;38913;44.338;11.206;2023-05-25T06:18:33;100551.56;;;18.53;100.00
53023;BME280;38913;44.338;11.206;2023-05-25T06:21:00;100561.84;;;18.66;100.00
53023;BME280;38913;44.338;11.206;2023-05-25T06:23:25;100592.25;;;18.65;100.00
53023;BME280;38913;44.338;11.206;2023-05-25T06:25:51;100602.19;;;18.70;100.00
53023;BME280;38913;44.338;11.206;2023-05-25T06:28:17;100621.16;;;18.96;100.00
53023;BME280;38913;44.338;11.206;2023-05-25T06:30:42;100640.53;;;19.36;100.00
53023;BME280;38913;44.338;11.206;2023-05-25T06:33:07;100658.50;;;19.73;100.00
53023;BME280;38913;44.338;11.206;2023-05-25T06:35:33;100668.88;;;19.70;100.00
53023;BME280;38913;44.338;11.206;2023-05-25T06:37:58;100687.97;;;19.51;100.00
53023;BME280;38913;44.338;11.206;2023-05-25T06:40:24;100689.16;;;19.65;100.00
53023;BME280;38913;44.338;11.206;2023-05-25T06:42:49;100671.75;;;19.35;100.00
53023;BME280;38913;44.338;11.206;2023-05-25T06:45:15;100653.13;;;19.40;100.00
53023;BME280;38913;44.338;11.206;2023-05-25T06:47:40;100659.22;;;19.63;100.00
53023;BME280;38913;44.338;11.206;2023-05-25T06:50:06;100659.28;;;19.74;100.00
53023;BME280;38913;44.338;11.206;2023-05-25T06:52:32;100669.69;;;19.98;100.00
53023;BME280;38913;44.338;11.206;2023-05-25T06:54:57;100682.75;;;20.32;100.00
53023;BME280;38913;44.338;11.206;2023-05-25T06:57:23;100675.75;;;20.31;100.00
53023;BME280;38913;44.338;11.206;2023-05-25T06:59:48;100677.50;;;20.10;100.00
53023;BME280;38913;44.338;11.206;2023-05-25T07:02:14;100689.44;;;20.40;100.00
53023;BME280;38913;44.338;11.206;2023-05-25T07:04:39;100686.88;;;20.60;100.00
53023;BME280;38913;44.338;11.206;2023-05-25T07:07:05;100693.09;;;20.66;100.00
53023;BME280;38913;44.338;11.206;2023-05-25T07:09:31;100697.56;;;21.19;100.00
53023;BME280;38913;44.338;11.206;2023-05-25T07:11:57;100734.28;;;21.19;100.00
53023;BME280;38913;44.338;11.206;2023-05-25T07:14:22;100759.66;;;22.27;100.00
53023;BME280;38913;44.338;11.206;2023-05-25T07:16:47;100792.78;;;23.09;100.00
53023;BME280;38913;44.338;11.206;2023-05-25T07:19:13;100810.34;;;22.13;100.00
53023;BME280;38913;44.338;11.206;2023-05-25T07:21:38;100778.00;;;21.40;100.00
53023;BME280;38913;44.338;11.206;2023-05-25T07:24:04;100753.56;;;21.10;100.00
53023;BME280;38913;44.338;11.206;2023-05-25T07:26:30;100730.28;;;21.21;100.00
53023;BME280;38913;44.338;11.206;2023-05-25T07:28:56;100723.81;;;21.12;100.00
53023;BME280;38913;44.338;11.206;2023-05-25T07:31:22;100726.63;;;21.64;100.00
53023;BME280;38913;44.338;11.206;2023-05-25T07:33:47;100743.53;;;21.90;100.00
53023;BME280;38913;44.338;11.206;2023-05-25T07:36:12;100752.41;;;22.01;100.00
53023;BME280;38913;44.338;11.206;2023-05-25T07:38:38;100747.31;;;22.05;100.00
53023;BME280;38913;44.338;11.206;2023-05-25T07:41:03;100755.06;;;21.86;100.00
53023;BME280;38913;44.338;11.206;2023-05-25T07:43:29;100738.19;;;21.75;100.00
53023;BME280;38913;44.338;11.206;2023-05-25T07:45:54;100737.38;;;21.74;100.00
53023;BME280;38913;44.338;11.206;2023-05-25T07:48:20;100737.66;;;21.73;100.00
53023;BME280;38913;44.338;11.206;2023-05-25T07:50:45;100747.84;;;21.91;100.00
53023;BME280;38913;44.338;11.206;2023-05-25T07:53:10;100742.16;;;21.56;100.00
53023;BME280;38913;44.338;11.206;2023-05-25T07:55:36;100719.88;;;21.30;100.00
53023;BME280;38913;44.338;11.206;2023-05-25T07:58:01;100715.81;;;21.33;100.00
53023;BME280;38913;44.338;11.206;2023-05-25T08:00:26;100710.41;;;21.07;100.00
53023;BME280;38913;44.338;11.206;2023-05-25T08:02:52;100706.25;;;21.68;100.00
53023;BME280;38913;44.338;11.206;2023-05-25T08:05:17;100721.31;;;21.74;100.00
53023;BME280;38913;44.338;11.206;2023-05-25T08:07:44;100718.63;;;21.95;100.00
53023;BME280;38913;44.338;11.206;2023-05-25T08:10:10;100720.75;;;21.98;100.00
53023;BME280;38913;44.338;11.206;2023-05-25T08:12:35;100725.56;;;21.80;100.00
53023;BME280;38913;44.338;11.206;2023-05-25T08:15:01;100730.94;;;21.75;100.00
53023;BME280;38913;44.338;11.206;2023-05-25T08:17:26;100711.81;;;21.30;100.00
53023;BME280;38913;44.338;11.206;2023-05-25T08:19:53;100713.66;;;21.24;100.00
53023;BME280;38913;44.338;11.206;2023-05-25T08:22:20;100693.56;;;21.11;100.00
53023;BME280;38913;44.338;11.206;2023-05-25T08:24:45;100698.03;;;20.90;100.00
53023;BME280;38913;44.338;11.206;2023-05-25T08:27:11;100684.59;;;20.85;100.00
53023;BME280;38913;44.338;11.206;2023-05-25T08:29:36;100674.16;;;20.83;100.00
53023;BME280;38913;44.338;11.206;2023-05-25T08:32:02;100681.91;;;20.80;100.00
53023;BME280;38913;44.338;11.206;2023-05-25T08:34:28;100678.63;;;20.67;100.00
53023;BME280;38913;44.338;11.206;2023-05-25T08:36:56;100694.66;;;20.62;100.00
53023;BME280;38913;44.338;11.206;2023-05-25T08:39:21;100682.91;;;20.68;100.00
53023;BME280;38913;44.338;11.206;2023-05-25T08:41:48;100716.88;;;20.62;100.00
53023;BME280;38913;44.338;11.206;2023-05-25T08:44:14;100718.03;;;20.77;100.00
53023;BME280;38913;44.338;11.206;2023-05-25T08:46:40;100712.47;;;20.89;100.00
53023;BME280;38913;44.338;11.206;2023-05-25T08:49:13;100708.22;;;20.98;100.00
53023;BME280;38913;44.338;11.206;2023-05-25T08:51:48;100697.50;;;20.93;100.00
53023;BME280;38913;44.338;11.206;2023-05-25T08:54:18;100700.22;;;21.03;100.00
53023;BME280;38913;44.338;11.206;2023-05-25T08:56:51;100704.25;;;21.11;100.00
53023;BME280;38913;44.338;11.206;2023-05-25T08:59:27;100707.25;;;21.20;100.00
53023;BME280;38913;44.338;11.206;2023-05-25T09:02:01;100726.53;;;21.33;100.00
53023;BME280;38913;44.338;11.206;2023-05-25T09:04:32;100709.91;;;21.25;100.00
53023;BME280;38913;44.338;11.206;2023-05-25T09:06:58;100706.41;;;21.14;100.00
53023;BME280;38913;44.338;11.206;2023-05-25T09:09:25;100718.72;;;21.10;100.00
53023;BME280;38913;44.338;11.206;2023-05-25T09:11:51;100721.09;;;21.01;100.00
53023;BME280;38913;44.338;11.206;2023-05-25T09:14:17;100686.25;;;20.91;100.00
53023;BME280;38913;44.338;11.206;2023-05-25T09:16:44;100681.97;;;20.95;100.00
53023;BME280;38913;44.338;11.206;2023-05-25T09:19:10;100670.72;;;20.98;100.00
53023;BME280;38913;44.338;11.206;2023-05-25T09:21:35;100679.47;;;20.78;100.00
53023;BME280;38913;44.338;11.206;2023-05-25T09:24:01;100670.09;;;20.75;100.00
53023;BME280;38913;44.338;11.206;2023-05-25T09:26:26;100656.88;;;20.53;100.00
53023;BME280;38913;44.338;11.206;2023-05-25T09:28:52;100645.91;;;20.55;100.00
53023;BME280;38913;44.338;11.206;2023-05-25T09:31:17;100635.75;;;20.52;100.00
53023;BME280;38913;44.338;11.206;2023-05-25T09:33:44;100644.34;;;20.59;100.00
53023;BME280;38913;44.338;11.206;2023-05-25T09:36:11;100621.63;;;20.72;100.00
53023;BME280;38913;44.338;11.206;2023-05-25T09:38:39;100626.72;;;20.73;100.00
53023;BME280;38913;44.338;11.206;2023-05-25T09:41:05;100634.22;;;20.76;100.00
53023;BME280;38913;44.338;11.206;2023-05-25T09:43:31;100633.16;;;20.83;100.00
53023;BME280;38913;44.338;11.206;2023-05-25T09:45:57;100618.44;;;20.80;100.00
53023;BME280;38913;44.338;11.206;2023-05-25T09:48:23;100626.81;;;20.89;100.00
53023;BME280;38913;44.338;11.206;2023-05-25T09:50:49;100620.66;;;20.94;100.00
53023;BME280;38913;44.338;11.206;2023-05-25T09:53:15;100640.22;;;21.05;100.00
53023;BME280;38913;44.338;11.206;2023-05-25T09:55:40;100670.25;;;21.07;100.00
53023;BME280;38913;44.338;11.206;2023-05-25T09:58:06;100670.28;;;21.22;100.00
53023;BME280;38913;44.338;11.206;2023-05-25T10:00:31;100696.00;;;21.28;100.00
53023;BME280;38913;44.338;11.206;2023-05-25T10:02:58;100686.84;;;21.19;100.00
53023;BME280;38913;44.338;11.206;2023-05-25T10:05:24;100673.19;;;21.15;100.00
53023;BME280;38913;44.338;11.206;2023-05-25T10:07:50;100687.13;;;21.12;100.00
53023;BME280;38913;44.338;11.206;2023-05-25T10:10:18;100684.19;;;21.19;100.00
53023;BME280;38913;44.338;11.206;2023-05-25T10:12:44;100690.34;;;21.14;100.00
53023;BME280;38913;44.338;11.206;2023-05-25T10:15:13;100699.22;;;21.20;100.00
53023;BME280;38913;44.338;11.206;2023-05-25T10:17:53;100703.69;;;21.09;100.00
53023;BME280;38913;44.338;11.206;2023-05-25T10:20:23;100692.72;;;21.06;100.00
53023;BME280;38913;44.338;11.206;2023-05-25T10:23:05;100683.66;;;21.17;100.00
53023;BME280;38913;44.338;11.206;2023-05-25T10:25:37;100702.19;;;21.39;100.00
53023;BME280;38913;44.338;11.206;2023-05-25T10:30:41;100738.69;;;21.66;100.00
53023;BME280;38913;44.338;11.206;2023-05-25T10:33:07;100746.97;;;21.65;100.00
53023;BME280;38913;44.338;11.206;2023-05-25T10:35:34;100738.16;;;21.64;100.00
53023;BME280;38913;44.338;11.206;2023-05-25T10:38:01;100758.28;;;22.34;100.00
53023;BME280;38913;44.338;11.206;2023-05-25T10:40:28;100796.66;;;23.48;100.00
53023;BME280;38913;44.338;11.206;2023-05-25T10:43:26;100808.50;;;23.46;100.00
53023;BME280;38913;44.338;11.206;2023-05-25T10:45:52;100817.63;;;23.96;100.00
53023;BME280;38913;44.338;11.206;2023-05-25T10:48:18;100836.66;;;24.39;100.00
53023;BME280;38913;44.338;11.206;2023-05-25T10:50:49;100824.75;;;24.16;100.00
53023;BME280;38913;44.338;11.206;2023-05-25T10:53:15;100815.00;;;23.80;100.00
53023;BME280;38913;44.338;11.206;2023-05-25T10:58:19;100795.53;;;23.54;100.00
53023;BME280;38913;44.338;11.206;2023-05-25T11:06:14;100767.22;;;23.67;100.00
53023;BME280;38913;44.338;11.206;2023-05-25T11:08:58;100794.00;;;24.81;100.00
53023;BME280;38913;44.338;11.206;2023-05-25T11:14:21;100823.19;;;25.42;100.00
53023;BME280;38913;44.338;11.206;2023-05-25T11:17:10;100834.41;;;25.30;100.00
53023;BME280;38913;44.338;11.206;2023-05-25T11:24:41;100831.00;;;25.44;100.00
53023;BME280;38913;44.338;11.206;2023-05-25T11:27:09;100811.78;;;24.83;100.00
53023;BME280;38913;44.338;11.206;2023-05-25T11:29:35;100785.94;;;24.52;100.00
53023;BME280;38913;44.338;11.206;2023-05-25T11:32:01;100749.69;;;24.39;100.00
53023;BME280;38913;44.338;11.206;2023-05-25T11:34:29;100755.84;;;24.45;100.00
53023;BME280;38913;44.338;11.206;2023-05-25T11:36:57;100759.41;;;24.05;100.00
53023;BME280;38913;44.338;11.206;2023-05-25T11:39:22;100782.66;;;24.55;100.00
53023;BME280;38913;44.338;11.206;2023-05-25T11:41:51;100760.38;;;24.49;100.00
53023;BME280;38913;44.338;11.206;2023-05-25T11:44:25;100760.59;;;24.53;100.00
53023;BME280;38913;44.338;11.206;2023-05-25T11:46:52;100761.47;;;24.73;100.00
53023;BME280;38913;44.338;11.206;2023-05-25T11:49:20;100763.03;;;24.25;100.00
53023;BME280;38913;44.338;11.206;2023-05-25T11:51:45;100764.88;;;24.84;100.00
53023;BME280;38913;44.338;11.206;2023-05-25T11:54:23;100774.97;;;24.97;100.00
53023;BME280;38913;44.338;11.206;2023-05-25T11:56:49;100762.38;;;24.92;100.00
53023;BME280;38913;44.338;11.206;2023-05-25T11:59:14;100751.34;;;24.64;100.00
53023;BME280;38913;44.338;11.206;2023-05-25T12:01:40;100766.47;;;25.53;100.00
53023;BME280;38913;44.338;11.206;2023-05-25T12:04:10;100754.75;;;25.19;100.00
53023;BME280;38913;44.338;11.206;2023-05-25T12:06:35;100758.47;;;25.42;100.00
53023;BME280;38913;44.338;11.206;2023-05-25T12:09:02;100769.88;;;24.66;100.00
53023;BME280;38913;44.338;11.206;2023-05-25T12:11:36;100773.22;;;25.06;100.00
53023;BME280;38913;44.338;11.206;2023-05-25T12:14:09;100773.22;;;25.06;100.00
53023;BME280;38913;44.338;11.206;2023-05-25T12:16:36;100793.97;;;25.30;100.00
53023;BME280;38913;44.338;11.206;2023-05-25T12:19:06;100804.56;;;25.84;100.00
53023;BME280;38913;44.338;11.206;2023-05-25T12:21:32;100813.13;;;26.06;100.00
53023;BME280;38913;44.338;11.206;2023-05-25T12:23:58;100810.25;;;25.83;100.00
53023;BME280;38913;44.338;11.206;2023-05-25T12:26:24;100804.66;;;26.12;100.00
53023;BME280;38913;44.338;11.206;2023-05-25T12:29:03;100807.34;;;25.60;100.00
53023;BME280;38913;44.338;11.206;2023-05-25T12:31:33;100811.56;;;25.22;100.00
53023;BME280;38913;44.338;11.206;2023-05-25T12:34:12;100798.53;;;25.30;100.00
53023;BME280;38913;44.338;11.206;2023-05-25T12:36:49;100837.00;;;24.62;100.00
53023;BME280;38913;44.338;11.206;2023-05-25T12:39:38;100830.41;;;25.03;100.00
53023;BME280;38913;44.338;11.206;2023-05-25T12:42:03;100828.34;;;25.39;100.00
53023;BME280;38913;44.338;11.206;2023-05-25T12:44:37;100816.91;;;25.28;100.00
53023;BME280;38913;44.338;11.206;2023-05-25T12:49:35;100823.66;;;24.81;100.00
53023;BME280;38913;44.338;11.206;2023-05-25T12:52:02;100807.84;;;24.94;100.00